Gaspé Airport, Quebec

Past 24 Hour Conditions

This table is a summary of hourly weather conditions for the past 24 hours. This summary includes the following parameters: temperature, humidity, dew point, wind speed and direction, air pressure, visibility and/or wind chill and humidex.
Date / Time
(EDT)
Conditions Temp (°F) Humidity (%) Dew Point (°F) Wind (mph) Pressure (inches) Visibility (miles)
20 August 2014
4:00 Cloudy 60 89 57 WNW 4 29.9 15
3:00 Mostly Cloudy 60 92 57 WNW 7 29.9 15
2:00 Mostly Cloudy 59   95 57 WSW 5 29.8 15
1:00 Mostly Cloudy 59   92 57 WNW 5 29.8 15
00:00 Cloudy 61 90 58 NW 3 29.8 15
19 August 2014
23:00 Light Drizzle 61 90 58 NW 8 29.8 15
22:00 Light Drizzle 62 88 58 WNW 9 gust 18 29.8 15
21:00 Light Drizzle 62 89 59 WNW 9 29.8 15
20:00 Mostly Cloudy 61 93 59 WNW 5 29.8 10
19:00 Mostly Cloudy 62 89 59 WNW 4 29.8 10
18:00 Light Rain 62 89 59 WNW 6 29.8 15
17:00 Light Rain 63   89 59 NW 7 29.8 15
16:00 Light Rain 62 92 60 NW 6 29.7 2
15:00 Light Rain 63   90 60 NNW 6 29.7 8
14:00 Light Rain 62 91 60 WNW 9 29.7 10
13:00 Mostly Cloudy 63   89 60 NNW 10 29.7 15
12:00 Mostly Cloudy 63   91 60 NNW 9 29.7 15
11:00 Cloudy 63   94 61 NNW 8 29.7 8
10:00 Light Rain 61 94 60 NW 7 29.7 3
9:00 Mostly Cloudy 62 90 59 NW 7 29.7 15
8:00 Mostly Cloudy 61 92 58 W 6 29.7 15
7:00 N/A 60 94 58 W 9 29.7 15
6:00 Light Rain 60 93 58 WNW 6 29.7 12
5:00 Light Rain 60 94 58 WNW 5 29.7 12
4:00 Light Rain 60 93 58 NW 7 29.6 12
N/A
Not available
 ↑ 
Highest temperature
 ↓ 
Lowest temperature

If you require additional historical weather information, please visit Climate Data Online.